sensor_id;sensor_type;location;lat;lon;timestamp;P1;durP1;ratioP1;P2;durP2;ratioP2
21444;SDS011;10883;51.946;20.140;2022-11-20T00:01:10;68.37;;;28.80;;
21444;SDS011;10883;51.946;20.140;2022-11-20T00:03:38;71.87;;;30.33;;
21444;SDS011;10883;51.946;20.140;2022-11-20T00:06:04;73.97;;;30.43;;
21444;SDS011;10883;51.946;20.140;2022-11-20T00:08:32;77.67;;;31.43;;
21444;SDS011;10883;51.946;20.140;2022-11-20T00:11:02;69.30;;;28.53;;
21444;SDS011;10883;51.946;20.140;2022-11-20T00:13:32;79.57;;;32.57;;
21444;SDS011;10883;51.946;20.140;2022-11-20T00:15:59;74.27;;;31.37;;
21444;SDS011;10883;51.946;20.140;2022-11-20T00:18:27;68.13;;;29.70;;
21444;SDS011;10883;51.946;20.140;2022-11-20T00:20:53;76.57;;;32.10;;
21444;SDS011;10883;51.946;20.140;2022-11-20T00:23:19;72.70;;;29.03;;
21444;SDS011;10883;51.946;20.140;2022-11-20T00:25:46;63.13;;;30.40;;
21444;SDS011;10883;51.946;20.140;2022-11-20T00:28:12;65.73;;;30.00;;
21444;SDS011;10883;51.946;20.140;2022-11-20T00:30:38;73.23;;;29.53;;
21444;SDS011;10883;51.946;20.140;2022-11-20T00:33:03;60.57;;;26.93;;
21444;SDS011;10883;51.946;20.140;2022-11-20T00:35:29;68.73;;;28.60;;
21444;SDS011;10883;51.946;20.140;2022-11-20T00:37:55;84.43;;;30.37;;
21444;SDS011;10883;51.946;20.140;2022-11-20T00:40:21;70.73;;;28.77;;
21444;SDS011;10883;51.946;20.140;2022-11-20T00:42:46;70.57;;;30.63;;
21444;SDS011;10883;51.946;20.140;2022-11-20T00:45:12;67.10;;;29.80;;
21444;SDS011;10883;51.946;20.140;2022-11-20T00:47:38;68.57;;;30.77;;
21444;SDS011;10883;51.946;20.140;2022-11-20T00:50:04;67.07;;;25.60;;
21444;SDS011;10883;51.946;20.140;2022-11-20T00:52:30;70.37;;;29.60;;
21444;SDS011;10883;51.946;20.140;2022-11-20T00:54:55;67.83;;;29.67;;
21444;SDS011;10883;51.946;20.140;2022-11-20T00:57:21;71.23;;;29.60;;
21444;SDS011;10883;51.946;20.140;2022-11-20T00:59:47;66.67;;;28.53;;
21444;SDS011;10883;51.946;20.140;2022-11-20T01:02:13;75.87;;;30.70;;
21444;SDS011;10883;51.946;20.140;2022-11-20T01:04:41;68.03;;;28.63;;
21444;SDS011;10883;51.946;20.140;2022-11-20T01:07:07;67.13;;;29.60;;
21444;SDS011;10883;51.946;20.140;2022-11-20T01:09:33;65.63;;;28.43;;
21444;SDS011;10883;51.946;20.140;2022-11-20T01:11:59;67.60;;;29.07;;
21444;SDS011;10883;51.946;20.140;2022-11-20T01:14:25;68.43;;;29.60;;
21444;SDS011;10883;51.946;20.140;2022-11-20T01:16:51;68.03;;;29.60;;
21444;SDS011;10883;51.946;20.140;2022-11-20T01:19:21;68.97;;;28.83;;
21444;SDS011;10883;51.946;20.140;2022-11-20T01:21:49;66.50;;;30.37;;
21444;SDS011;10883;51.946;20.140;2022-11-20T01:24:17;73.70;;;30.73;;
21444;SDS011;10883;51.946;20.140;2022-11-20T01:26:44;82.47;;;32.83;;
21444;SDS011;10883;51.946;20.140;2022-11-20T01:29:14;69.97;;;32.77;;
21444;SDS011;10883;51.946;20.140;2022-11-20T01:31:41;80.53;;;33.77;;
21444;SDS011;10883;51.946;20.140;2022-11-20T01:34:12;75.33;;;32.63;;
21444;SDS011;10883;51.946;20.140;2022-11-20T01:36:40;78.03;;;32.70;;
21444;SDS011;10883;51.946;20.140;2022-11-20T01:39:09;67.20;;;29.43;;
21444;SDS011;10883;51.946;20.140;2022-11-20T01:41:38;74.57;;;30.93;;
21444;SDS011;10883;51.946;20.140;2022-11-20T01:44:39;65.97;;;30.67;;
21444;SDS011;10883;51.946;20.140;2022-11-20T01:47:13;72.60;;;31.00;;
21444;SDS011;10883;51.946;20.140;2022-11-20T01:49:46;72.63;;;30.73;;
21444;SDS011;10883;51.946;20.140;2022-11-20T01:52:19;70.33;;;31.17;;
21444;SDS011;10883;51.946;20.140;2022-11-20T01:55:01;69.77;;;30.03;;
21444;SDS011;10883;51.946;20.140;2022-11-20T01:57:31;71.33;;;31.20;;
21444;SDS011;10883;51.946;20.140;2022-11-20T02:00:03;70.77;;;31.07;;
21444;SDS011;10883;51.946;20.140;2022-11-20T02:02:33;82.40;;;32.30;;
21444;SDS011;10883;51.946;20.140;2022-11-20T02:05:01;77.17;;;30.30;;
21444;SDS011;10883;51.946;20.140;2022-11-20T02:07:37;73.10;;;31.17;;
21444;SDS011;10883;51.946;20.140;2022-11-20T02:10:03;75.87;;;31.80;;
21444;SDS011;10883;51.946;20.140;2022-11-20T02:12:29;80.13;;;32.17;;
21444;SDS011;10883;51.946;20.140;2022-11-20T02:15:14;73.53;;;30.90;;
21444;SDS011;10883;51.946;20.140;2022-11-20T02:17:40;88.97;;;35.77;;
21444;SDS011;10883;51.946;20.140;2022-11-20T02:20:05;78.50;;;31.80;;
21444;SDS011;10883;51.946;20.140;2022-11-20T02:22:34;82.40;;;34.30;;
21444;SDS011;10883;51.946;20.140;2022-11-20T02:25:16;68.50;;;32.40;;
21444;SDS011;10883;51.946;20.140;2022-11-20T02:27:43;78.77;;;33.37;;
21444;SDS011;10883;51.946;20.140;2022-11-20T02:30:09;82.17;;;35.07;;
21444;SDS011;10883;51.946;20.140;2022-11-20T02:32:36;87.03;;;35.93;;
21444;SDS011;10883;51.946;20.140;2022-11-20T02:35:09;79.43;;;33.27;;
21444;SDS011;10883;51.946;20.140;2022-11-20T02:37:57;85.50;;;36.07;;
21444;SDS011;10883;51.946;20.140;2022-11-20T02:40:25;97.47;;;39.20;;
21444;SDS011;10883;51.946;20.140;2022-11-20T02:42:52;86.47;;;38.40;;
21444;SDS011;10883;51.946;20.140;2022-11-20T02:45:18;90.87;;;36.33;;
21444;SDS011;10883;51.946;20.140;2022-11-20T02:47:44;97.27;;;38.77;;
21444;SDS011;10883;51.946;20.140;2022-11-20T02:50:11;88.63;;;36.63;;
21444;SDS011;10883;51.946;20.140;2022-11-20T02:52:37;88.53;;;37.40;;
21444;SDS011;10883;51.946;20.140;2022-11-20T02:55:02;86.27;;;37.57;;
21444;SDS011;10883;51.946;20.140;2022-11-20T02:57:28;74.50;;;33.57;;
21444;SDS011;10883;51.946;20.140;2022-11-20T02:59:54;85.27;;;34.60;;
21444;SDS011;10883;51.946;20.140;2022-11-20T03:02:20;77.87;;;33.40;;
21444;SDS011;10883;51.946;20.140;2022-11-20T03:04:46;81.60;;;33.17;;
21444;SDS011;10883;51.946;20.140;2022-11-20T03:07:12;72.63;;;32.30;;
21444;SDS011;10883;51.946;20.140;2022-11-20T03:09:38;73.20;;;31.20;;
21444;SDS011;10883;51.946;20.140;2022-11-20T03:12:04;82.63;;;33.60;;
21444;SDS011;10883;51.946;20.140;2022-11-20T03:14:30;75.00;;;31.47;;
21444;SDS011;10883;51.946;20.140;2022-11-20T03:16:56;84.67;;;33.33;;
21444;SDS011;10883;51.946;20.140;2022-11-20T03:19:22;77.03;;;33.90;;
21444;SDS011;10883;51.946;20.140;2022-11-20T03:21:48;83.50;;;35.07;;
21444;SDS011;10883;51.946;20.140;2022-11-20T03:24:14;97.97;;;37.97;;
21444;SDS011;10883;51.946;20.140;2022-11-20T03:26:40;82.60;;;34.23;;
21444;SDS011;10883;51.946;20.140;2022-11-20T03:29:06;84.50;;;36.77;;
21444;SDS011;10883;51.946;20.140;2022-11-20T03:31:36;84.33;;;34.90;;
21444;SDS011;10883;51.946;20.140;2022-11-20T03:34:05;84.67;;;35.47;;
21444;SDS011;10883;51.946;20.140;2022-11-20T03:36:32;89.80;;;35.73;;
21444;SDS011;10883;51.946;20.140;2022-11-20T03:38:58;80.93;;;34.37;;
21444;SDS011;10883;51.946;20.140;2022-11-20T03:41:25;86.67;;;36.03;;
21444;SDS011;10883;51.946;20.140;2022-11-20T03:43:53;80.00;;;36.03;;
21444;SDS011;10883;51.946;20.140;2022-11-20T03:46:23;84.40;;;36.50;;
21444;SDS011;10883;51.946;20.140;2022-11-20T03:48:49;84.50;;;36.07;;
21444;SDS011;10883;51.946;20.140;2022-11-20T03:51:19;81.17;;;34.57;;
21444;SDS011;10883;51.946;20.140;2022-11-20T03:53:46;82.83;;;35.10;;
21444;SDS011;10883;51.946;20.140;2022-11-20T03:56:13;91.90;;;37.33;;
21444;SDS011;10883;51.946;20.140;2022-11-20T03:58:41;89.33;;;37.20;;
21444;SDS011;10883;51.946;20.140;2022-11-20T04:01:15;107.03;;;43.30;;
21444;SDS011;10883;51.946;20.140;2022-11-20T04:03:42;108.57;;;45.07;;
21444;SDS011;10883;51.946;20.140;2022-11-20T04:06:14;108.90;;;48.20;;
21444;SDS011;10883;51.946;20.140;2022-11-20T04:08:44;93.33;;;43.07;;
21444;SDS011;10883;51.946;20.140;2022-11-20T04:11:12;90.43;;;38.83;;
21444;SDS011;10883;51.946;20.140;2022-11-20T04:13:38;104.27;;;44.70;;
21444;SDS011;10883;51.946;20.140;2022-11-20T04:16:05;90.80;;;38.67;;
21444;SDS011;10883;51.946;20.140;2022-11-20T04:18:32;85.50;;;38.67;;
21444;SDS011;10883;51.946;20.140;2022-11-20T04:20:58;95.47;;;40.27;;
21444;SDS011;10883;51.946;20.140;2022-11-20T04:23:26;106.77;;;47.03;;
21444;SDS011;10883;51.946;20.140;2022-11-20T04:25:52;103.03;;;46.37;;
21444;SDS011;10883;51.946;20.140;2022-11-20T04:28:18;103.33;;;45.27;;
21444;SDS011;10883;51.946;20.140;2022-11-20T04:30:44;103.00;;;46.93;;
21444;SDS011;10883;51.946;20.140;2022-11-20T04:33:10;89.63;;;39.30;;
21444;SDS011;10883;51.946;20.140;2022-11-20T04:35:36;111.37;;;48.00;;
21444;SDS011;10883;51.946;20.140;2022-11-20T04:38:03;106.10;;;43.07;;
21444;SDS011;10883;51.946;20.140;2022-11-20T04:40:30;92.47;;;39.73;;
21444;SDS011;10883;51.946;20.140;2022-11-20T04:42:56;74.97;;;35.40;;
21444;SDS011;10883;51.946;20.140;2022-11-20T04:45:22;88.77;;;38.50;;
21444;SDS011;10883;51.946;20.140;2022-11-20T04:47:48;92.57;;;38.80;;
21444;SDS011;10883;51.946;20.140;2022-11-20T04:50:14;89.23;;;38.23;;
21444;SDS011;10883;51.946;20.140;2022-11-20T04:52:40;82.30;;;36.80;;
21444;SDS011;10883;51.946;20.140;2022-11-20T04:55:06;84.47;;;38.60;;
21444;SDS011;10883;51.946;20.140;2022-11-20T04:57:32;87.17;;;36.70;;
21444;SDS011;10883;51.946;20.140;2022-11-20T04:59:58;84.17;;;36.33;;
21444;SDS011;10883;51.946;20.140;2022-11-20T05:02:24;82.27;;;35.50;;
21444;SDS011;10883;51.946;20.140;2022-11-20T05:04:49;79.30;;;35.67;;
21444;SDS011;10883;51.946;20.140;2022-11-20T05:07:15;86.00;;;38.40;;
21444;SDS011;10883;51.946;20.140;2022-11-20T05:09:41;117.47;;;48.33;;
21444;SDS011;10883;51.946;20.140;2022-11-20T05:12:07;98.77;;;41.27;;
21444;SDS011;10883;51.946;20.140;2022-11-20T05:14:34;98.87;;;39.53;;
21444;SDS011;10883;51.946;20.140;2022-11-20T05:17:00;102.93;;;41.30;;
21444;SDS011;10883;51.946;20.140;2022-11-20T05:19:26;99.97;;;39.07;;
21444;SDS011;10883;51.946;20.140;2022-11-20T05:21:51;99.20;;;37.93;;
21444;SDS011;10883;51.946;20.140;2022-11-20T05:24:17;124.50;;;46.80;;
21444;SDS011;10883;51.946;20.140;2022-11-20T05:26:43;109.50;;;44.13;;
21444;SDS011;10883;51.946;20.140;2022-11-20T05:29:11;187.17;;;75.13;;
21444;SDS011;10883;51.946;20.140;2022-11-20T05:31:38;136.80;;;57.13;;
21444;SDS011;10883;51.946;20.140;2022-11-20T05:34:05;120.87;;;50.70;;
21444;SDS011;10883;51.946;20.140;2022-11-20T05:36:31;106.10;;;43.87;;
21444;SDS011;10883;51.946;20.140;2022-11-20T05:38:57;119.00;;;48.83;;
21444;SDS011;10883;51.946;20.140;2022-11-20T05:41:23;101.77;;;41.90;;
21444;SDS011;10883;51.946;20.140;2022-11-20T05:43:49;103.70;;;43.73;;
21444;SDS011;10883;51.946;20.140;2022-11-20T05:46:16;123.67;;;48.70;;
21444;SDS011;10883;51.946;20.140;2022-11-20T05:48:44;94.60;;;39.67;;
21444;SDS011;10883;51.946;20.140;2022-11-20T05:51:11;92.03;;;38.70;;
21444;SDS011;10883;51.946;20.140;2022-11-20T05:53:39;102.90;;;40.60;;
21444;SDS011;10883;51.946;20.140;2022-11-20T05:56:12;118.53;;;45.07;;
21444;SDS011;10883;51.946;20.140;2022-11-20T05:58:40;96.67;;;40.27;;
21444;SDS011;10883;51.946;20.140;2022-11-20T06:03:32;125.87;;;49.17;;
21444;SDS011;10883;51.946;20.140;2022-11-20T06:05:59;115.77;;;45.17;;
21444;SDS011;10883;51.946;20.140;2022-11-20T06:08:25;90.47;;;40.13;;
21444;SDS011;10883;51.946;20.140;2022-11-20T06:10:51;90.37;;;39.17;;
21444;SDS011;10883;51.946;20.140;2022-11-20T06:13:17;92.07;;;36.70;;
21444;SDS011;10883;51.946;20.140;2022-11-20T06:15:47;87.43;;;36.73;;
21444;SDS011;10883;51.946;20.140;2022-11-20T06:18:17;94.10;;;39.73;;
21444;SDS011;10883;51.946;20.140;2022-11-20T06:20:43;93.70;;;39.47;;
21444;SDS011;10883;51.946;20.140;2022-11-20T06:23:09;107.60;;;41.73;;
21444;SDS011;10883;51.946;20.140;2022-11-20T06:25:39;98.97;;;40.77;;
21444;SDS011;10883;51.946;20.140;2022-11-20T06:28:06;103.57;;;42.10;;
21444;SDS011;10883;51.946;20.140;2022-11-20T06:30:32;88.37;;;38.27;;
21444;SDS011;10883;51.946;20.140;2022-11-20T06:32:58;118.43;;;45.43;;
21444;SDS011;10883;51.946;20.140;2022-11-20T06:35:23;108.73;;;43.37;;
21444;SDS011;10883;51.946;20.140;2022-11-20T06:37:49;101.93;;;41.40;;
21444;SDS011;10883;51.946;20.140;2022-11-20T06:40:15;118.07;;;44.10;;
21444;SDS011;10883;51.946;20.140;2022-11-20T06:42:41;122.67;;;45.50;;
21444;SDS011;10883;51.946;20.140;2022-11-20T06:45:07;111.23;;;43.63;;
21444;SDS011;10883;51.946;20.140;2022-11-20T06:47:33;113.17;;;43.87;;
21444;SDS011;10883;51.946;20.140;2022-11-20T06:49:59;105.63;;;43.37;;
21444;SDS011;10883;51.946;20.140;2022-11-20T06:52:25;136.40;;;48.87;;
21444;SDS011;10883;51.946;20.140;2022-11-20T06:54:51;133.47;;;49.73;;
21444;SDS011;10883;51.946;20.140;2022-11-20T06:57:16;129.03;;;49.83;;
21444;SDS011;10883;51.946;20.140;2022-11-20T06:59:42;114.43;;;44.63;;
21444;SDS011;10883;51.946;20.140;2022-11-20T07:02:11;118.43;;;48.23;;
21444;SDS011;10883;51.946;20.140;2022-11-20T07:04:37;102.63;;;41.60;;
21444;SDS011;10883;51.946;20.140;2022-11-20T07:07:04;96.17;;;40.53;;
21444;SDS011;10883;51.946;20.140;2022-11-20T07:09:31;91.57;;;39.77;;
21444;SDS011;10883;51.946;20.140;2022-11-20T07:11:58;90.60;;;38.63;;
21444;SDS011;10883;51.946;20.140;2022-11-20T07:14:24;97.23;;;40.87;;
21444;SDS011;10883;51.946;20.140;2022-11-20T07:16:50;88.57;;;38.97;;
21444;SDS011;10883;51.946;20.140;2022-11-20T07:19:16;87.83;;;38.73;;
21444;SDS011;10883;51.946;20.140;2022-11-20T07:21:41;81.07;;;36.03;;
21444;SDS011;10883;51.946;20.140;2022-11-20T07:24:07;94.20;;;39.23;;
21444;SDS011;10883;51.946;20.140;2022-11-20T07:26:33;97.67;;;41.47;;
21444;SDS011;10883;51.946;20.140;2022-11-20T07:28:59;98.13;;;42.67;;
21444;SDS011;10883;51.946;20.140;2022-11-20T07:31:24;97.50;;;41.37;;
21444;SDS011;10883;51.946;20.140;2022-11-20T07:33:50;107.23;;;46.33;;
21444;SDS011;10883;51.946;20.140;2022-11-20T07:36:16;94.50;;;40.63;;
21444;SDS011;10883;51.946;20.140;2022-11-20T07:38:42;83.97;;;37.57;;
21444;SDS011;10883;51.946;20.140;2022-11-20T07:41:07;78.50;;;36.67;;
21444;SDS011;10883;51.946;20.140;2022-11-20T07:43:34;83.30;;;36.80;;
21444;SDS011;10883;51.946;20.140;2022-11-20T07:46:00;75.57;;;35.97;;
21444;SDS011;10883;51.946;20.140;2022-11-20T07:48:26;72.17;;;33.13;;
21444;SDS011;10883;51.946;20.140;2022-11-20T07:50:53;79.90;;;36.30;;
21444;SDS011;10883;51.946;20.140;2022-11-20T17:16:41;249.63;;;88.90;;
21444;SDS011;10883;51.946;20.140;2022-11-20T17:19:07;305.43;;;101.60;;
21444;SDS011;10883;51.946;20.140;2022-11-20T17:21:33;257.33;;;96.70;;
21444;SDS011;10883;51.946;20.140;2022-11-20T17:24:00;214.73;;;80.80;;
21444;SDS011;10883;51.946;20.140;2022-11-20T17:26:27;246.47;;;93.73;;
21444;SDS011;10883;51.946;20.140;2022-11-20T17:28:54;237.00;;;92.77;;
21444;SDS011;10883;51.946;20.140;2022-11-20T17:31:23;223.23;;;87.33;;
21444;SDS011;10883;51.946;20.140;2022-11-20T17:33:49;216.57;;;83.83;;
21444;SDS011;10883;51.946;20.140;2022-11-20T17:36:15;214.37;;;82.23;;
21444;SDS011;10883;51.946;20.140;2022-11-20T17:38:41;203.57;;;77.23;;
21444;SDS011;10883;51.946;20.140;2022-11-20T17:41:09;209.70;;;79.80;;
21444;SDS011;10883;51.946;20.140;2022-11-20T17:43:43;202.37;;;79.40;;
21444;SDS011;10883;51.946;20.140;2022-11-20T17:48:36;181.57;;;69.40;;
21444;SDS011;10883;51.946;20.140;2022-11-20T17:51:04;193.83;;;72.57;;
21444;SDS011;10883;51.946;20.140;2022-11-20T17:53:34;187.70;;;69.83;;
21444;SDS011;10883;51.946;20.140;2022-11-20T17:56:02;175.63;;;66.97;;
21444;SDS011;10883;51.946;20.140;2022-11-20T17:58:47;183.93;;;69.33;;
21444;SDS011;10883;51.946;20.140;2022-11-20T18:01:18;171.87;;;68.47;;
21444;SDS011;10883;51.946;20.140;2022-11-20T18:03:46;170.03;;;66.73;;
21444;SDS011;10883;51.946;20.140;2022-11-20T18:06:18;158.63;;;63.83;;
21444;SDS011;10883;51.946;20.140;2022-11-20T18:08:47;164.23;;;63.50;;
21444;SDS011;10883;51.946;20.140;2022-11-20T18:11:18;153.67;;;63.43;;
21444;SDS011;10883;51.946;20.140;2022-11-20T18:13:49;141.20;;;59.27;;
21444;SDS011;10883;51.946;20.140;2022-11-20T18:16:40;131.70;;;53.07;;
21444;SDS011;10883;51.946;20.140;2022-11-20T18:19:20;135.87;;;53.33;;
21444;SDS011;10883;51.946;20.140;2022-11-20T18:21:48;131.30;;;55.03;;
21444;SDS011;10883;51.946;20.140;2022-11-20T18:24:15;131.47;;;54.10;;
21444;SDS011;10883;51.946;20.140;2022-11-20T18:26:41;141.90;;;54.87;;
21444;SDS011;10883;51.946;20.140;2022-11-20T18:29:07;134.47;;;52.43;;
21444;SDS011;10883;51.946;20.140;2022-11-20T18:31:33;136.10;;;54.60;;
21444;SDS011;10883;51.946;20.140;2022-11-20T18:33:59;130.87;;;54.10;;
21444;SDS011;10883;51.946;20.140;2022-11-20T18:36:27;148.10;;;57.37;;
21444;SDS011;10883;51.946;20.140;2022-11-20T18:38:55;142.27;;;58.47;;
21444;SDS011;10883;51.946;20.140;2022-11-20T18:41:23;165.37;;;63.27;;
21444;SDS011;10883;51.946;20.140;2022-11-20T18:44:20;154.20;;;65.10;;
21444;SDS011;10883;51.946;20.140;2022-11-20T18:47:06;164.30;;;67.07;;
21444;SDS011;10883;51.946;20.140;2022-11-20T18:49:35;153.00;;;62.53;;
21444;SDS011;10883;51.946;20.140;2022-11-20T18:52:01;142.07;;;59.47;;
21444;SDS011;10883;51.946;20.140;2022-11-20T18:54:27;143.50;;;57.03;;
21444;SDS011;10883;51.946;20.140;2022-11-20T18:56:52;147.00;;;55.80;;
21444;SDS011;10883;51.946;20.140;2022-11-20T18:59:18;141.43;;;58.33;;
21444;SDS011;10883;51.946;20.140;2022-11-20T19:01:45;156.90;;;62.63;;
21444;SDS011;10883;51.946;20.140;2022-11-20T19:04:13;151.57;;;61.17;;
21444;SDS011;10883;51.946;20.140;2022-11-20T19:06:40;162.33;;;65.27;;
21444;SDS011;10883;51.946;20.140;2022-11-20T19:09:08;169.77;;;68.90;;
21444;SDS011;10883;51.946;20.140;2022-11-20T19:11:36;158.80;;;65.80;;
21444;SDS011;10883;51.946;20.140;2022-11-20T19:14:03;163.10;;;65.33;;
21444;SDS011;10883;51.946;20.140;2022-11-20T19:16:29;169.03;;;69.07;;
21444;SDS011;10883;51.946;20.140;2022-11-20T19:18:58;168.43;;;66.47;;
21444;SDS011;10883;51.946;20.140;2022-11-20T19:21:24;162.23;;;62.60;;
21444;SDS011;10883;51.946;20.140;2022-11-20T19:23:51;184.27;;;65.43;;
21444;SDS011;10883;51.946;20.140;2022-11-20T19:26:21;192.50;;;70.60;;
21444;SDS011;10883;51.946;20.140;2022-11-20T19:28:47;272.50;;;96.67;;
21444;SDS011;10883;51.946;20.140;2022-11-20T19:31:17;333.70;;;112.00;;
21444;SDS011;10883;51.946;20.140;2022-11-20T19:33:45;225.07;;;84.87;;
21444;SDS011;10883;51.946;20.140;2022-11-20T19:38:37;232.97;;;83.53;;
21444;SDS011;10883;51.946;20.140;2022-11-20T19:41:04;239.03;;;88.43;;
21444;SDS011;10883;51.946;20.140;2022-11-20T19:43:32;222.83;;;84.27;;
21444;SDS011;10883;51.946;20.140;2022-11-20T19:45:58;235.60;;;89.10;;
21444;SDS011;10883;51.946;20.140;2022-11-20T19:48:24;220.67;;;83.73;;
21444;SDS011;10883;51.946;20.140;2022-11-20T19:50:50;221.83;;;85.67;;
21444;SDS011;10883;51.946;20.140;2022-11-20T19:53:16;208.43;;;84.83;;
21444;SDS011;10883;51.946;20.140;2022-11-20T19:55:53;208.83;;;85.93;;
21444;SDS011;10883;51.946;20.140;2022-11-20T19:58:22;229.07;;;85.67;;
21444;SDS011;10883;51.946;20.140;2022-11-20T20:00:48;217.57;;;86.97;;
21444;SDS011;10883;51.946;20.140;2022-11-20T20:03:14;206.37;;;81.90;;
21444;SDS011;10883;51.946;20.140;2022-11-20T20:05:40;206.97;;;81.03;;
21444;SDS011;10883;51.946;20.140;2022-11-20T20:08:06;203.53;;;81.60;;
21444;SDS011;10883;51.946;20.140;2022-11-20T20:10:31;203.63;;;80.33;;
21444;SDS011;10883;51.946;20.140;2022-11-20T20:12:57;196.30;;;81.00;;
21444;SDS011;10883;51.946;20.140;2022-11-20T20:15:23;198.50;;;79.27;;
21444;SDS011;10883;51.946;20.140;2022-11-20T20:17:52;203.00;;;78.97;;
21444;SDS011;10883;51.946;20.140;2022-11-20T20:20:19;194.60;;;77.00;;
21444;SDS011;10883;51.946;20.140;2022-11-20T20:22:45;199.60;;;84.83;;
21444;SDS011;10883;51.946;20.140;2022-11-20T20:25:12;259.27;;;106.57;;
21444;SDS011;10883;51.946;20.140;2022-11-20T20:27:38;263.17;;;104.53;;
21444;SDS011;10883;51.946;20.140;2022-11-20T20:30:05;226.37;;;92.57;;
21444;SDS011;10883;51.946;20.140;2022-11-20T20:32:32;243.20;;;102.67;;
21444;SDS011;10883;51.946;20.140;2022-11-20T20:34:58;205.47;;;88.23;;
21444;SDS011;10883;51.946;20.140;2022-11-20T20:37:24;174.00;;;74.53;;
21444;SDS011;10883;51.946;20.140;2022-11-20T20:39:50;186.77;;;73.80;;
21444;SDS011;10883;51.946;20.140;2022-11-20T20:42:16;177.50;;;67.77;;
21444;SDS011;10883;51.946;20.140;2022-11-20T20:44:41;169.53;;;68.50;;
21444;SDS011;10883;51.946;20.140;2022-11-20T20:47:29;157.30;;;69.10;;
21444;SDS011;10883;51.946;20.140;2022-11-20T20:49:55;162.93;;;66.50;;
21444;SDS011;10883;51.946;20.140;2022-11-20T20:52:22;159.53;;;65.07;;
21444;SDS011;10883;51.946;20.140;2022-11-20T20:54:51;168.53;;;64.90;;
21444;SDS011;10883;51.946;20.140;2022-11-20T20:57:17;177.53;;;69.63;;
21444;SDS011;10883;51.946;20.140;2022-11-20T20:59:44;199.67;;;72.50;;
21444;SDS011;10883;51.946;20.140;2022-11-20T21:02:09;180.07;;;67.57;;
21444;SDS011;10883;51.946;20.140;2022-11-20T21:04:35;200.20;;;74.10;;
21444;SDS011;10883;51.946;20.140;2022-11-20T21:07:01;180.33;;;69.33;;
21444;SDS011;10883;51.946;20.140;2022-11-20T21:09:27;176.53;;;68.90;;
21444;SDS011;10883;51.946;20.140;2022-11-20T21:11:53;211.97;;;74.20;;
21444;SDS011;10883;51.946;20.140;2022-11-20T21:14:19;249.53;;;82.90;;
21444;SDS011;10883;51.946;20.140;2022-11-20T21:16:44;221.27;;;75.87;;
21444;SDS011;10883;51.946;20.140;2022-11-20T21:19:10;200.23;;;70.30;;
21444;SDS011;10883;51.946;20.140;2022-11-20T21:21:36;240.87;;;77.93;;
21444;SDS011;10883;51.946;20.140;2022-11-20T21:24:21;183.50;;;66.90;;
21444;SDS011;10883;51.946;20.140;2022-11-20T21:26:47;153.93;;;62.10;;
21444;SDS011;10883;51.946;20.140;2022-11-20T21:29:19;163.53;;;62.93;;
21444;SDS011;10883;51.946;20.140;2022-11-20T21:31:46;163.90;;;64.77;;
21444;SDS011;10883;51.946;20.140;2022-11-20T21:34:12;184.80;;;70.37;;
21444;SDS011;10883;51.946;20.140;2022-11-20T21:36:39;188.37;;;71.13;;
21444;SDS011;10883;51.946;20.140;2022-11-20T21:39:05;172.70;;;68.43;;
21444;SDS011;10883;51.946;20.140;2022-11-20T21:41:31;184.60;;;68.07;;
21444;SDS011;10883;51.946;20.140;2022-11-20T21:43:59;187.47;;;72.80;;
21444;SDS011;10883;51.946;20.140;2022-11-20T21:46:28;206.17;;;74.00;;
21444;SDS011;10883;51.946;20.140;2022-11-20T21:48:55;227.50;;;80.90;;
21444;SDS011;10883;51.946;20.140;2022-11-20T21:51:22;250.60;;;84.20;;
21444;SDS011;10883;51.946;20.140;2022-11-20T21:53:49;223.60;;;82.20;;
21444;SDS011;10883;51.946;20.140;2022-11-20T21:56:18;205.00;;;76.70;;
21444;SDS011;10883;51.946;20.140;2022-11-20T21:58:45;197.17;;;75.33;;
21444;SDS011;10883;51.946;20.140;2022-11-20T22:01:12;181.97;;;70.37;;
21444;SDS011;10883;51.946;20.140;2022-11-20T22:03:39;180.80;;;69.43;;
21444;SDS011;10883;51.946;20.140;2022-11-20T22:06:06;168.17;;;67.57;;
21444;SDS011;10883;51.946;20.140;2022-11-20T22:08:34;168.40;;;62.73;;
21444;SDS011;10883;51.946;20.140;2022-11-20T22:11:03;169.07;;;66.33;;
21444;SDS011;10883;51.946;20.140;2022-11-20T22:13:31;170.77;;;66.03;;
21444;SDS011;10883;51.946;20.140;2022-11-20T22:16:15;172.13;;;69.00;;
21444;SDS011;10883;51.946;20.140;2022-11-20T22:18:45;182.77;;;67.00;;
21444;SDS011;10883;51.946;20.140;2022-11-20T22:21:13;173.17;;;67.80;;
21444;SDS011;10883;51.946;20.140;2022-11-20T22:23:39;170.53;;;66.50;;
21444;SDS011;10883;51.946;20.140;2022-11-20T22:26:12;161.90;;;64.17;;
21444;SDS011;10883;51.946;20.140;2022-11-20T22:28:40;159.20;;;61.27;;
21444;SDS011;10883;51.946;20.140;2022-11-20T22:31:07;164.90;;;62.80;;
21444;SDS011;10883;51.946;20.140;2022-11-20T22:33:35;165.63;;;62.10;;
21444;SDS011;10883;51.946;20.140;2022-11-20T22:36:02;169.70;;;64.53;;
21444;SDS011;10883;51.946;20.140;2022-11-20T22:38:33;159.13;;;61.10;;
21444;SDS011;10883;51.946;20.140;2022-11-20T22:41:03;155.77;;;60.20;;
21444;SDS011;10883;51.946;20.140;2022-11-20T22:43:38;162.97;;;61.57;;
21444;SDS011;10883;51.946;20.140;2022-11-20T22:46:08;178.87;;;65.03;;
21444;SDS011;10883;51.946;20.140;2022-11-20T22:48:37;187.37;;;66.77;;
21444;SDS011;10883;51.946;20.140;2022-11-20T22:51:06;184.90;;;69.13;;
21444;SDS011;10883;51.946;20.140;2022-11-20T22:53:34;204.70;;;73.20;;
21444;SDS011;10883;51.946;20.140;2022-11-20T22:56:01;217.10;;;72.40;;
21444;SDS011;10883;51.946;20.140;2022-11-20T22:58:27;202.03;;;69.17;;
21444;SDS011;10883;51.946;20.140;2022-11-20T23:00:55;386.50;;;128.70;;
21444;SDS011;10883;51.946;20.140;2022-11-20T23:03:29;260.50;;;93.07;;
21444;SDS011;10883;51.946;20.140;2022-11-20T23:05:57;222.30;;;82.27;;
21444;SDS011;10883;51.946;20.140;2022-11-20T23:08:23;227.27;;;75.90;;
21444;SDS011;10883;51.946;20.140;2022-11-20T23:10:49;201.40;;;68.17;;
21444;SDS011;10883;51.946;20.140;2022-11-20T23:13:15;179.73;;;65.67;;
21444;SDS011;10883;51.946;20.140;2022-11-20T23:15:41;177.40;;;64.57;;
21444;SDS011;10883;51.946;20.140;2022-11-20T23:18:07;162.50;;;61.70;;
21444;SDS011;10883;51.946;20.140;2022-11-20T23:20:35;160.33;;;62.43;;
21444;SDS011;10883;51.946;20.140;2022-11-20T23:23:01;157.53;;;61.53;;
21444;SDS011;10883;51.946;20.140;2022-11-20T23:25:27;154.60;;;60.13;;
21444;SDS011;10883;51.946;20.140;2022-11-20T23:27:53;163.23;;;62.07;;
21444;SDS011;10883;51.946;20.140;2022-11-20T23:30:19;171.57;;;61.93;;
21444;SDS011;10883;51.946;20.140;2022-11-20T23:32:45;170.40;;;63.80;;
21444;SDS011;10883;51.946;20.140;2022-11-20T23:35:11;156.80;;;62.43;;